Burgtor — V2OR7 — position and weather

sailwx.info

Track history (hours):
 
Tides and Currents Weather Stations Pressure Air Temp Water Temp Dewpoint Dewpoint Depression Visibility Wind Speed Wind Dir Waves Ship Positions

Burgtor

Last reported at 2018-Feb-17 10:25 UTC. Time now 2018-Feb-19 16:12 UTC.
Position N 29°02' W 013°15'.

Length 87 m; draft 3.6 m.

Type: Cargo ship. MMSI: 304665000.

Date/timePositionNaut miles runAvg speedWind from/ knotsBaromVisibWave heightAir tempDewpointWater temp
2018-Feb-17 10:25N 29°02' W 013°15'4 8.1
2018-Feb-17 09:58N 28°60' W 013°17'4 8.2
2018-Feb-17 09:27N 28°56' W 013°20'4 8.1
2018-Feb-17 08:59N 28°53' W 013°23'4 7.6
2018-Feb-17 08:30N 28°50' W 013°25'4 7.5
2018-Feb-17 07:58N 28°47' W 013°28'4 7.6
2018-Feb-17 07:27N 28°43' W 013°30'4 7.8
2018-Feb-17 06:53N 28°40' W 013°33'12 7.7
2018-Feb-17 05:19N 28°29' W 013°40'4 8.4
2018-Feb-17 04:49N 28°25' W 013°39'3 8.1
2018-Feb-17 04:25N 28°22' W 013°39'4 8.0
2018-Feb-17 03:52N 28°18' W 013°39'3 7.9
2018-Feb-17 03:30N 28°15' W 013°38'7 8.3
2018-Feb-17 02:36N 28°07' W 013°37'2 8.6
2018-Feb-17 02:23N 28°05' W 013°37'4 8.5
2018-Feb-17 01:58N 28°02' W 013°37'4 8.6
2018-Feb-17 01:27N 27°57' W 013°36'53 1.3
2018-Feb-15 08:13N 27°06' W 013°26'0 0.0
2018-Feb-15 07:55N 27°06' W 013°26'0 0.0
2018-Feb-15 07:25N 27°06' W 013°26'0 0.0
2018-Feb-15 03:01N 27°06' W 013°26'0 0.0
2018-Feb-15 02:43N 27°06' W 013°26'0 0.0
2018-Feb-15 02:19N 27°06' W 013°26'0 0.0
2018-Feb-15 01:46N 27°06' W 013°26'0 0.0
2018-Feb-15 01:04N 27°06' W 013°26'0 0.0
2018-Feb-15 00:49N 27°06' W 013°26'0 0.0
2018-Feb-15 00:01N 27°06' W 013°26'0 0.0
2018-Feb-14 23:49N 27°06' W 013°26'0 0.0
2018-Feb-14 23:19N 27°06' W 013°26'0 0.0
2018-Feb-14 22:49N 27°06' W 013°26'0 0.0
2018-Feb-14 21:22N 27°06' W 013°26'0 0.0
2018-Feb-14 20:49N 27°06' W 013°26'0 0.0
2018-Feb-14 19:04N 27°06' W 013°26'0 0.0
2018-Feb-14 18:52N 27°06' W 013°26'0 0.0
2018-Feb-14 18:25N 27°06' W 013°26'0 0.0
2018-Feb-14 17:55N 27°06' W 013°26'0 0.0
2018-Feb-14 17:25N 27°06' W 013°26'0 0.0
2018-Feb-14 16:52N 27°06' W 013°26'0 0.0
2018-Feb-14 16:19N 27°06' W 013°26'0 0.0
2018-Feb-14 15:52N 27°06' W 013°26'0 0.0
2018-Feb-14 15:09N 27°06' W 013°26'0 0.0
2018-Feb-14 14:06N 27°06' W 013°26'0 0.0
2018-Feb-14 13:54N 27°06' W 013°26'0 0.0
2018-Feb-14 13:27N 27°06' W 013°26'0 0.0
2018-Feb-14 12:57N 27°06' W 013°26'0 0.0
2018-Feb-14 12:27N 27°06' W 013°26'0 0.0
2018-Feb-14 11:57N 27°06' W 013°26'0 0.0
2018-Feb-14 11:24N 27°06' W 013°26'0 0.0
2018-Feb-14 10:57N 27°06' W 013°26'0 0.0
2018-Feb-14 10:12N 27°06' W 013°26'0 0.0
2018-Feb-14 09:54N 27°06' W 013°26'0 0.0
2018-Feb-14 09:27N 27°06' W 013°26'0 0.0
2018-Feb-14 08:57N 27°06' W 013°26'0 0.0
2018-Feb-14 08:27N 27°06' W 013°26'0 0.0
2018-Feb-13 18:51N 27°06' W 013°26'0 0.0
2018-Feb-13 18:18N 27°06' W 013°26'0 0.0
2018-Feb-13 17:48N 27°06' W 013°26'0 0.0
2018-Feb-13 17:30N 27°06' W 013°26'0 0.0
2018-Feb-13 17:00N 27°06' W 013°26'0 0.0
2018-Feb-13 16:30N 27°06' W 013°26'0 0.0
2018-Feb-13 16:00N 27°06' W 013°26'0 0.0
2018-Feb-13 15:30N 27°06' W 013°26'0 0.0
2018-Feb-13 14:42N 27°06' W 013°26'0 0.0
2018-Feb-13 14:30N 27°06' W 013°26'0 0.0
2018-Feb-13 14:00N 27°06' W 013°26'  
2018-Feb-09 16:00N 35°58' W 005°33'8 8.0
2018-Feb-09 15:00N 36°01' W 005°25'  
Track history (hours):
 
Tides and Currents Weather Stations Pressure Air Temp Water Temp Dewpoint Dewpoint Depression Visibility Wind Speed Wind Dir Waves Ship Positions

Burgtor

Last reported at 2018-Feb-17 10:25 UTC. Time now 2018-Feb-19 16:12 UTC.
Position N 29°02' W 013°15'.

Length 87 m; draft 3.6 m.

Type: Cargo ship. MMSI: 304665000.

Date/timePositionNaut miles runAvg speedWind from/ knotsBaromVisibWave heightAir tempDewpointWater temp
2018-Feb-17 10:25N 29°02' W 013°15'4 8.1
2018-Feb-17 09:58N 28°60' W 013°17'4 8.2
2018-Feb-17 09:27N 28°56' W 013°20'4 8.1
2018-Feb-17 08:59N 28°53' W 013°23'4 7.6
2018-Feb-17 08:30N 28°50' W 013°25'4 7.5
2018-Feb-17 07:58N 28°47' W 013°28'4 7.6
2018-Feb-17 07:27N 28°43' W 013°30'4 7.8
2018-Feb-17 06:53N 28°40' W 013°33'12 7.7
2018-Feb-17 05:19N 28°29' W 013°40'4 8.4
2018-Feb-17 04:49N 28°25' W 013°39'3 8.1
2018-Feb-17 04:25N 28°22' W 013°39'4 8.0
2018-Feb-17 03:52N 28°18' W 013°39'3 7.9
2018-Feb-17 03:30N 28°15' W 013°38'7 8.3
2018-Feb-17 02:36N 28°07' W 013°37'2 8.6
2018-Feb-17 02:23N 28°05' W 013°37'4 8.5
2018-Feb-17 01:58N 28°02' W 013°37'4 8.6
2018-Feb-17 01:27N 27°57' W 013°36'53 1.3
2018-Feb-15 08:13N 27°06' W 013°26'0 0.0
2018-Feb-15 07:55N 27°06' W 013°26'0 0.0
2018-Feb-15 07:25N 27°06' W 013°26'0 0.0
2018-Feb-15 03:01N 27°06' W 013°26'0 0.0
2018-Feb-15 02:43N 27°06' W 013°26'0 0.0
2018-Feb-15 02:19N 27°06' W 013°26'0 0.0
2018-Feb-15 01:46N 27°06' W 013°26'0 0.0
2018-Feb-15 01:04N 27°06' W 013°26'0 0.0
2018-Feb-15 00:49N 27°06' W 013°26'0 0.0
2018-Feb-15 00:01N 27°06' W 013°26'0 0.0
2018-Feb-14 23:49N 27°06' W 013°26'0 0.0
2018-Feb-14 23:19N 27°06' W 013°26'0 0.0
2018-Feb-14 22:49N 27°06' W 013°26'0 0.0
2018-Feb-14 21:22N 27°06' W 013°26'0 0.0
2018-Feb-14 20:49N 27°06' W 013°26'0 0.0
2018-Feb-14 19:04N 27°06' W 013°26'0 0.0
2018-Feb-14 18:52N 27°06' W 013°26'0 0.0
2018-Feb-14 18:25N 27°06' W 013°26'0 0.0
2018-Feb-14 17:55N 27°06' W 013°26'0 0.0
2018-Feb-14 17:25N 27°06' W 013°26'0 0.0
2018-Feb-14 16:52N 27°06' W 013°26'0 0.0
2018-Feb-14 16:19N 27°06' W 013°26'0 0.0
2018-Feb-14 15:52N 27°06' W 013°26'0 0.0
2018-Feb-14 15:09N 27°06' W 013°26'0 0.0
2018-Feb-14 14:06N 27°06' W 013°26'0 0.0
2018-Feb-14 13:54N 27°06' W 013°26'0 0.0
2018-Feb-14 13:27N 27°06' W 013°26'0 0.0
2018-Feb-14 12:57N 27°06' W 013°26'0 0.0
2018-Feb-14 12:27N 27°06' W 013°26'0 0.0
2018-Feb-14 11:57N 27°06' W 013°26'0 0.0
2018-Feb-14 11:24N 27°06' W 013°26'0 0.0
2018-Feb-14 10:57N 27°06' W 013°26'0 0.0
2018-Feb-14 10:12N 27°06' W 013°26'0 0.0
2018-Feb-14 09:54N 27°06' W 013°26'0 0.0
2018-Feb-14 09:27N 27°06' W 013°26'0 0.0
2018-Feb-14 08:57N 27°06' W 013°26'0 0.0
2018-Feb-14 08:27N 27°06' W 013°26'0 0.0
2018-Feb-13 18:51N 27°06' W 013°26'0 0.0
2018-Feb-13 18:18N 27°06' W 013°26'0 0.0
2018-Feb-13 17:48N 27°06' W 013°26'0 0.0
2018-Feb-13 17:30N 27°06' W 013°26'0 0.0
2018-Feb-13 17:00N 27°06' W 013°26'0 0.0
2018-Feb-13 16:30N 27°06' W 013°26'0 0.0
2018-Feb-13 16:00N 27°06' W 013°26'0 0.0
2018-Feb-13 15:30N 27°06' W 013°26'0 0.0
2018-Feb-13 14:42N 27°06' W 013°26'0 0.0
2018-Feb-13 14:30N 27°06' W 013°26'0 0.0
2018-Feb-13 14:00N 27°06' W 013°26'  
2018-Feb-09 16:00N 35°58' W 005°33'8 8.0
2018-Feb-09 15:00N 36°01' W 005°25'  

Dump ship's entire track history